Puerto Aisen, Chile
Current Conditions -  °F | °C
As of 3:00 AM on Saturday 01 Nov 2014 (Local Time) from SCBA Reporting Station
NA  
Wind Chill: 25°   Ceiling: NA
Heat Index: 25°   Visibility: 6mi
Dew Point: 21°   Wind: 1mph
Humidity: 86%   Direction: NA
Pressure: 30.48"   Gusts: NA
Location:  45.4°S, 72.7°W
Report Text: SCBA 010700Z AUTO VRB01KT 9999 M04/M06 Q1032
Loading
Personal Weather Stations






























Interactive Weather Map
Tropical Storm Tracking
New forecast layout! Learn more

10-Day Weather Forecast

Advertisements
Track Severe Weather on mobile